Time;durP1;ratioP1;P1;durP2;ratioP2;P2;SDS_P1;SDS_P2;PMS_P1;PMS_P2;Temp;Humidity;BMP_temperature;BMP_pressure;BME280_temperature;BME280_humidity;BME280_pressure;Samples;Min_cycle;Max_cycle;Signal;HPM_P1;HPM_P2
2022/07/23 06:01:55;;;;;;;;;;;;;;;;;;;;;
2022/07/23 06:04:49;;;;;;;;;;;;;;;;;;;;;
2022/07/23 06:07:28;;;;;;;4.00;2.22;;;16.70;97.50;;;;;;6323532;22;20037;-90
2022/07/23 06:09:57;;;;;;;2.85;1.65;;;16.70;97.50;;;;;;6297498;22;20487;-88
2022/07/23 06:12:25;;;;;;;2.00;1.70;;;16.80;97.50;;;;;;6321067;22;20003;-89
2022/07/23 06:14:56;;;;;;;2.28;1.80;;;16.80;97.50;;;;;;6321871;22;20503;-88
2022/07/23 06:17:25;;;;;;;2.50;1.80;;;16.90;97.50;;;;;;6299782;22;20030;-89
2022/07/23 06:19:54;;;;;;;3.05;1.80;;;16.90;97.40;;;;;;6325816;22;19998;-91
2022/07/23 06:22:23;;;;;;;3.38;1.73;;;17.00;97.40;;;;;;6340365;22;20002;-88
2022/07/23 06:24:51;;;;;;;2.63;1.80;;;17.00;97.30;;;;;;6342274;22;20055;-88
2022/07/23 06:27:20;;;;;;;2.83;1.95;;;17.00;97.30;;;;;;6340872;22;19999;-88
2022/07/23 06:29:48;;;;;;;2.80;1.80;;;17.10;97.20;;;;;;6335477;22;20029;-87
2022/07/23 06:32:14;;;;;;;3.42;1.98;;;17.10;97.20;;;;;;6325496;22;20388;-89
2022/07/23 06:34:51;;;;;;;2.85;1.80;;;17.20;97.10;;;;;;6332335;22;20003;-91
2022/07/23 06:37:36;;;;;;;;;;;;;;;;;;;;;
2022/07/23 06:40:16;;;;;;;2.38;1.50;;;17.30;97.00;;;;;;6341226;22;20010;-89
2022/07/23 06:42:57;;;;;;;;;;;;;;;;;;;;;
2022/07/23 06:45:23;;;;;;;2.78;2.00;;;17.30;97.00;;;;;;6344170;22;19983;-87
2022/07/23 06:48:02;;;;;;;;;;;;;;;;;;;;;
2022/07/23 06:50:35;;;;;;;2.67;1.92;;;17.50;97.10;;;;;;6355634;22;20006;-88
2022/07/23 06:53:01;;;;;;;2.22;1.80;;;17.60;97.20;;;;;;6295779;22;20003;-88
2022/07/23 06:55:39;;;;;;;;;;;;;;;;;;;;;
2022/07/23 06:58:08;;;;;;;2.03;1.60;;;17.70;97.20;;;;;;6323824;22;20021;-88
2022/07/23 07:00:34;;;;;;;3.83;2.40;;;17.70;97.10;;;;;;6308370;22;20015;-89
2022/07/23 07:03:33;;;;;;;3.10;2.10;;;17.90;97.00;;;;;;6316360;22;20045;-88
2022/07/23 07:06:04;;;;;;;4.55;2.20;;;17.90;96.90;;;;;;6269405;22;20014;-91
2022/07/23 07:08:32;;;;;;;;;;;18.00;96.80;;;;;;6288523;22;20007;-87
2022/07/23 07:11:08;;;;;;;;;;;;;;;;;;;;;
2022/07/23 07:13:36;;;;;;;3.30;2.28;;;18.10;96.80;;;;;;6314755;22;20074;-88
2022/07/23 07:16:05;;;;;;;4.65;1.83;;;18.10;96.70;;;;;;6287352;22;20034;-89
2022/07/23 07:19:01;;;;;;;1.25;1.20;;;18.10;96.50;;;;;;6288365;22;20397;-87
2022/07/23 07:21:29;;;;;;;3.53;1.23;;;18.20;96.20;;;;;;6265236;22;20014;-89
2022/07/23 07:23:58;;;;;;;2.17;1.40;;;18.30;95.60;;;;;;6260565;22;20007;-88
2022/07/23 07:26:44;;;;;;;2.20;1.50;;;18.30;95.00;;;;;;6286954;22;20060;-87
2022/07/23 07:29:19;;;;;;;2.15;1.55;;;18.30;94.70;;;;;;6262559;22;20052;-89
2022/07/23 07:31:57;;;;;;;;;;;;;;;;;;;;;
2022/07/23 07:34:53;;;;;;;;;;;;;;;;;;;;;
2022/07/23 07:37:22;;;;;;;3.17;1.48;;;18.50;93.90;;;;;;6314341;22;20027;-90
2022/07/23 07:40:01;;;;;;;4.63;1.70;;;18.50;93.90;;;;;;6287404;22;20003;-88
2022/07/23 07:43:03;;;;;;;;;;;;;;;;;;;;;
2022/07/23 07:45:43;;;;;;;;;;;;;;;;;;;;;
2022/07/23 07:48:18;;;;;;;3.80;1.70;;;18.60;93.30;;;;;;6313086;22;20023;-89
2022/07/23 07:50:47;;;;;;;1.88;1.45;;;18.70;93.10;;;;;;6313384;22;19996;-88
2022/07/23 07:53:24;;;;;;;2.45;1.40;;;18.70;93.10;;;;;;6286194;22;20488;-87
2022/07/23 07:56:19;;;;;;;2.17;1.50;;;18.70;93.20;;;;;;6313896;22;19999;-89
2022/07/23 07:58:48;;;;;;;4.30;2.28;;;18.80;93.00;;;;;;6287511;22;20078;-88
2022/07/23 08:01:27;;;;;;;;;;;;;;;;;;;;;
2022/07/23 08:04:01;;;;;;;2.05;1.40;;;18.90;92.30;;;;;;6315593;22;20022;-88
2022/07/23 08:06:38;;;;;;;3.95;1.55;;;19.00;92.30;;;;;;6287409;22;20007;-88
2022/07/23 08:09:11;;;;;;;2.42;1.40;;;19.00;92.40;;;;;;6286769;22;20006;-88
2022/07/23 08:11:42;;;;;;;2.30;1.35;;;19.10;92.50;;;;;;6264016;22;20084;-87
2022/07/23 08:14:20;;;;;;;2.10;1.33;;;19.20;92.70;;;;;;6288024;22;20534;-88
2022/07/23 08:17:00;;;;;;;;;;;;;;;;;;;;;
2022/07/23 08:19:46;;;;;;;2.30;1.73;;;19.30;93.10;;;;;;6333562;22;19995;-90
2022/07/23 08:22:44;;;;;;;4.05;1.40;;;19.40;92.80;;;;;;6309632;22;20253;-88
2022/07/23 08:25:12;;;;;;;2.95;1.45;;;19.40;92.10;;;;;;6336017;22;20007;-90
2022/07/23 08:27:40;;;;;;;3.05;1.33;;;19.40;92.00;;;;;;6309867;22;20059;-89
2022/07/23 08:30:17;;;;;;;2.00;1.30;;;19.50;92.10;;;;;;6308905;22;20004;-88
2022/07/23 08:33:03;;;;;;;3.13;1.27;;;19.50;92.10;;;;;;6271843;22;20018;-90
2022/07/23 08:35:58;;;;;;;1.45;1.10;;;19.60;91.50;;;;;;6290374;22;20066;-91
2022/07/23 08:38:28;;;;;;;3.28;1.42;;;19.70;91.50;;;;;;6291253;22;20333;-92
2022/07/23 08:41:00;;;;;;;1.83;1.20;;;19.70;91.40;;;;;;6267801;22;19990;-91
2022/07/23 08:44:04;;;;;;;2.63;1.10;;;19.80;91.30;;;;;;6242629;22;20007;-92
2022/07/23 08:46:47;;;;;;;1.45;1.10;;;19.80;91.30;;;;;;6299265;22;20003;-94
2022/07/23 08:53:04;;;;;;;;;;;;;;;;;;;;;
2022/07/23 08:56:04;;;;;;;;;;;;;;;;;;;;;
2022/07/23 08:58:59;;;;;;;2.42;1.25;;;20.10;91.40;;;;;;6297673;22;20032;-92
2022/07/23 09:01:37;;;;;;;;;;;;;;;;;;;;;
2022/07/23 09:04:52;;;;;;;2.22;1.00;;;20.20;91.10;;;;;;6299253;22;20000;-93
2022/07/23 09:07:21;;;;;;;2.80;1.33;;;20.20;91.20;;;;;;6285428;22;20004;-89
2022/07/23 09:10:04;;;;;;;1.98;1.20;;;20.20;91.20;;;;;;6284686;22;20010;-88
2022/07/23 09:12:37;;;;;;;2.60;1.25;;;20.30;91.40;;;;;;6284102;22;20011;-87
2022/07/23 09:15:09;;;;;;;1.52;1.10;;;20.30;91.70;;;;;;6260150;22;20022;-88
2022/07/23 09:17:49;;;;;;;3.03;1.58;;;20.40;91.90;;;;;;6284987;22;20010;-87
2022/07/23 09:20:28;;;;;;;;;;;;;;;;;;;;;
2022/07/23 09:23:16;;;;;;;1.95;1.20;;;20.40;91.60;;;;;;6287716;22;20056;-89
2022/07/23 09:26:12;;;;;;;;;;;;;;;;;;;;;
2022/07/23 09:28:58;;;;;;;2.00;1.10;;;20.60;90.80;;;;;;6299345;22;20095;-88
2022/07/23 09:32:07;;;;;;;1.85;1.27;;;20.70;90.80;;;;;;6284832;22;19999;-89
2022/07/23 09:34:41;;;;;;;2.45;1.75;;;20.70;90.80;;;;;;6286762;22;20016;-87
2022/07/23 09:37:19;;;;;;;2.00;1.67;;;20.80;90.90;;;;;;6288017;22;20003;-90
2022/07/23 09:39:48;;;;;;;1.75;1.25;;;20.90;90.80;;;;;;6289487;22;19999;-88
2022/07/23 09:42:43;;;;;;;1.45;1.20;;;20.90;90.20;;;;;;6289778;22;19999;-89
2022/07/23 09:45:18;;;;;;;1.98;1.05;;;20.90;90.10;;;;;;6287582;22;19999;-88
2022/07/23 09:48:00;;;;;;;;;;;;;;;;;;;;;
2022/07/23 09:51:05;;;;;;;1.40;1.02;;;21.00;90.30;;;;;;6316134;22;20012;-91
2022/07/23 10:39:42;;;;;;;;;;;;;;;;;;;;;
2022/07/23 10:42:20;;;;;;;4.10;1.13;;;21.90;87.90;;;;;;6322838;22;20027;-95
2022/07/23 10:44:57;;;;;;;;;;;;;;;;;;;;;
2022/07/23 10:47:41;;;;;;;2.25;1.40;;;22.00;88.50;;;;;;6317091;22;20022;-93
2022/07/23 10:50:38;;;;;;;1.45;1.10;;;21.90;88.00;;;;;;6318041;22;19996;-93
2022/07/23 10:53:18;;;;;;;1.23;1.13;;;22.00;88.40;;;;;;6315770;22;20310;-90
2022/07/23 10:55:48;;;;;;;5.13;1.20;;;22.10;88.20;;;;;;6289417;22;20493;-91
2022/07/23 10:58:55;;;;;;;;;;;;;;;;;;;;;
2022/07/23 11:02:17;;;;;;;1.17;1.00;;;22.30;87.70;;;;;;6320760;22;20019;-93
2022/07/23 11:05:02;;;;;;;2.35;1.40;;;22.30;87.60;;;;;;6192863;22;20003;-94
2022/07/23 11:08:20;;;;;;;3.20;1.30;;;22.40;87.20;;;;;;6295401;22;20000;-90
2022/07/23 11:11:09;;;;;;;1.50;1.40;;;22.50;87.70;;;;;;6165359;23;20006;-91
2022/07/23 11:13:55;;;;;;;4.30;1.65;;;22.50;87.70;;;;;;6140407;23;20021;-92
2022/07/23 11:16:23;;;;;;;2.58;1.60;;;22.50;83.90;;;;;;6259000;22;20003;-89
2022/07/23 11:18:55;;;;;;;3.95;1.50;;;22.60;82.70;;;;;;6263436;22;20000;-89
2022/07/23 11:21:29;;;;;;;1.38;1.10;;;22.60;83.30;;;;;;6291518;22;20025;-91
2022/07/23 11:24:07;;;;;;;2.90;1.27;;;22.70;84.10;;;;;;6289920;22;20010;-91
2022/07/23 11:26:56;;;;;;;2.50;1.45;;;22.70;84.90;;;;;;6316199;22;20467;-90
2022/07/23 11:29:54;;;;;;;1.83;1.20;;;22.80;85.80;;;;;;6288997;22;20067;-91
2022/07/23 11:32:23;;;;;;;2.55;1.20;;;22.80;85.90;;;;;;6312474;22;20007;-90
2022/07/23 11:34:59;;;;;;;2.28;1.52;;;22.80;85.90;;;;;;6286255;22;19996;-88
2022/07/23 11:37:39;;;;;;;1.40;1.20;;;22.90;85.50;;;;;;6287763;22;20078;-90
2022/07/23 11:40:08;;;;;;;2.47;1.52;;;22.90;85.10;;;;;;6289392;22;20011;-88
2022/07/23 11:42:50;;;;;;;1.90;1.17;;;22.90;85.30;;;;;;6316671;22;20000;-90
2022/07/23 11:45:16;;;;;;;1.60;1.40;;;23.00;85.60;;;;;;6293181;22;20041;-92
2022/07/23 11:47:42;;;;;;;2.25;1.58;;;23.10;85.00;;;;;;6294335;22;20022;-92
2022/07/23 11:50:10;;;;;;;1.42;1.30;;;23.10;85.00;;;;;;6289323;22;20003;-92
2022/07/23 11:53:04;;;;;;;2.88;1.63;;;23.10;85.00;;;;;;6267797;22;20021;-93
2022/07/23 11:55:32;;;;;;;3.00;1.50;;;23.20;85.10;;;;;;6251491;22;20081;-89
2022/07/23 11:58:13;;;;;;;2.97;1.35;;;23.20;84.00;;;;;;6285512;22;20047;-96
2022/07/23 12:00:48;;;;;;;1.73;1.23;;;23.30;83.70;;;;;;6265120;22;20004;-96
2022/07/23 12:03:17;;;;;;;2.70;1.30;;;23.40;83.30;;;;;;6293460;22;20059;-95
2022/07/23 12:05:45;;;;;;;1.60;1.50;;;23.40;83.40;;;;;;6295062;22;20000;-95
2022/07/23 12:13:35;;;;;;;1.83;1.50;;;23.60;83.00;;;;;;6291252;22;20028;-94
2022/07/23 12:16:05;;;;;;;2.60;1.52;;;23.60;83.50;;;;;;6235818;22;20007;-91
2022/07/23 12:18:33;;;;;;;1.50;1.30;;;23.70;83.70;;;;;;6265297;22;20015;-96
2022/07/23 12:21:04;;;;;;;2.40;1.40;;;23.70;83.90;;;;;;6265409;22;20016;-93
2022/07/23 12:23:33;;;;;;;1.77;1.40;;;23.70;82.90;;;;;;6293532;22;20010;-95
2022/07/23 12:28:49;;;;;;;;;;;;;;;;;;;;;
2022/07/23 12:34:27;;;;;;;1.80;1.30;;;23.90;82.10;;;;;;6318594;22;20027;-95
2022/07/23 12:36:55;;;;;;;2.90;2.05;;;23.90;82.10;;;;;;6287598;22;20060;-96
